DEEES EDLV-EDLV
Flight info
| Callsign | DEEES |
|---|---|
| Flight time | N/A |
| Altitude | 4000 |
| Route | VFR |
| Aircraft | C208/L-SDFGR/C |
Departure
| Time | 2026-05-05 09:50 |
|---|---|
| Airport | Weeze (Niederrhein) Airport (EDLV) |
Arrival
| Time | N/A |
|---|---|
| Airport | Weeze (Niederrhein) Airport (EDLV) |
| Time | Latitude | Longitude | Altitude | Speed | Heading |
|---|---|---|---|---|---|
| 2026-05-05 09:35 | 51.59942 | 6.16018 | 112 ft | 0 kts | 342° |
| 2026-05-05 09:40 | 51.59997 | 6.15988 | 112 ft | 15 kts | 335° |
| 2026-05-05 09:41 | 51.60019 | 6.15912 | 114 ft | 0 kts | 272° |
| 2026-05-05 09:41 | 51.60020 | 6.15899 | 114 ft | 5 kts | 271° |
| 2026-05-05 09:41 | 51.60021 | 6.15776 | 116 ft | 17 kts | 272° |
| 2026-05-05 09:42 | 51.60026 | 6.15569 | 115 ft | 16 kts | 274° |
| 2026-05-05 09:42 | 51.60029 | 6.15432 | 116 ft | 9 kts | 270° |
| 2026-05-05 09:42 | 51.60029 | 6.15354 | 116 ft | 6 kts | 270° |
| 2026-05-05 09:42 | 51.60030 | 6.15244 | 115 ft | 15 kts | 271° |
| 2026-05-05 09:43 | 51.60040 | 6.15029 | 111 ft | 21 kts | 276° |
| 2026-05-05 09:43 | 51.60044 | 6.14830 | 111 ft | 16 kts | 271° |
| 2026-05-05 09:43 | 51.60047 | 6.14669 | 108 ft | 13 kts | 271° |
| 2026-05-05 09:43 | 51.60049 | 6.14536 | 108 ft | 10 kts | 271° |
| 2026-05-05 09:44 | 51.60050 | 6.14442 | 109 ft | 7 kts | 270° |
| 2026-05-05 09:44 | 51.60050 | 6.14332 | 110 ft | 15 kts | 272° |
| 2026-05-05 09:44 | 51.60054 | 6.14091 | 111 ft | 24 kts | 271° |
| 2026-05-05 09:44 | 51.60062 | 6.13865 | 113 ft | 17 kts | 272° |
| 2026-05-05 09:45 | 51.60064 | 6.13703 | 111 ft | 13 kts | 271° |
| 2026-05-05 09:45 | 51.60067 | 6.13559 | 110 ft | 16 kts | 274° |
| 2026-05-05 09:45 | 51.60075 | 6.13326 | 110 ft | 25 kts | 272° |
| 2026-05-05 09:45 | 51.60080 | 6.13022 | 107 ft | 26 kts | 271° |
| 2026-05-05 09:46 | 51.60086 | 6.12772 | 107 ft | 19 kts | 273° |
| 2026-05-05 09:46 | 51.60091 | 6.12576 | 108 ft | 14 kts | 271° |
| 2026-05-05 09:46 | 51.60118 | 6.12455 | 109 ft | 15 kts | 355° |
| 2026-05-05 09:46 | 51.60174 | 6.12459 | 110 ft | 0 kts | 2° |
| 2026-05-05 09:48 | 51.60201 | 6.12460 | 110 ft | 10 kts | 1° |
| 2026-05-05 09:48 | 51.60285 | 6.12470 | 112 ft | 11 kts | 17° |
| 2026-05-05 09:49 | 51.60283 | 6.12557 | 109 ft | 3 kts | 92° |
| 2026-05-05 09:49 | 51.60281 | 6.12669 | 108 ft | 3 kts | 90° |
| 2026-05-05 09:49 | 51.60281 | 6.12721 | 109 ft | 11 kts | 90° |
| 2026-05-05 09:49 | 51.60279 | 6.12988 | 110 ft | 44 kts | 92° |
| 2026-05-05 09:50 | 51.60262 | 6.13721 | 194 ft | 78 kts | 90° |
| 2026-05-05 09:50 | 51.60260 | 6.14690 | 353 ft | 97 kts | 91° |
| 2026-05-05 09:50 | 51.60248 | 6.15854 | 527 ft | 113 kts | 88° |
| 2026-05-05 09:50 | 51.60434 | 6.17013 | 878 ft | 100 kts | 43° |
| 2026-05-05 09:51 | 51.61083 | 6.16983 | 1026 ft | 112 kts | 313° |
| 2026-05-05 09:51 | 51.61287 | 6.15764 | 1106 ft | 124 kts | 274° |
| 2026-05-05 09:51 | 51.61297 | 6.14324 | 1100 ft | 132 kts | 269° |
| 2026-05-05 09:51 | 51.61257 | 6.12960 | 1155 ft | 106 kts | 263° |
| 2026-05-05 09:52 | 51.61139 | 6.11798 | 939 ft | 111 kts | 258° |
| 2026-05-05 09:52 | 51.60784 | 6.10803 | 725 ft | 110 kts | 186° |
| 2026-05-05 09:52 | 51.60323 | 6.11721 | 370 ft | 116 kts | 102° |
| 2026-05-05 09:52 | 51.60289 | 6.12562 | 160 ft | 111 kts | 91° |
| 2026-05-05 09:53 | 51.60257 | 6.13967 | 116 ft | 77 kts | 91° |
| 2026-05-05 09:53 | 51.60243 | 6.14555 | 152 ft | 82 kts | 91° |
| 2026-05-05 09:53 | 51.60218 | 6.15959 | 348 ft | 113 kts | 90° |
| 2026-05-05 09:53 | 51.60251 | 6.17272 | 749 ft | 119 kts | 82° |
| 2026-05-05 09:54 | 51.60477 | 6.18548 | 1197 ft | 119 kts | 71° |
| 2026-05-05 09:54 | 51.60354 | 6.19828 | 1615 ft | 121 kts | 127° |
| 2026-05-05 09:54 | 51.59937 | 6.20448 | 1900 ft | 122 kts | 141° |
| 2026-05-05 09:54 | 51.59220 | 6.21443 | 1976 ft | 151 kts | 139° |
| 2026-05-05 09:55 | 51.58254 | 6.22336 | 1974 ft | 168 kts | 158° |
| 2026-05-05 09:55 | 51.57141 | 6.23067 | 1974 ft | 176 kts | 158° |
| 2026-05-05 09:55 | 51.55995 | 6.23830 | 1967 ft | 180 kts | 158° |
| 2026-05-05 09:55 | 51.54820 | 6.24397 | 1961 ft | 176 kts | 172° |
| 2026-05-05 09:56 | 51.53610 | 6.24628 | 1960 ft | 171 kts | 174° |
| 2026-05-05 09:56 | 51.52448 | 6.24840 | 1960 ft | 170 kts | 174° |
| 2026-05-05 09:56 | 51.51277 | 6.25051 | 1954 ft | 168 kts | 174° |
| 2026-05-05 09:56 | 51.50119 | 6.25344 | 1954 ft | 170 kts | 160° |
| 2026-05-05 09:57 | 51.49267 | 6.26598 | 1950 ft | 171 kts | 115° |
| 2026-05-05 09:57 | 51.48973 | 6.28437 | 1952 ft | 170 kts | 100° |
| 2026-05-05 09:57 | 51.48772 | 6.30302 | 1953 ft | 169 kts | 99° |
| 2026-05-05 09:57 | 51.48604 | 6.32167 | 1957 ft | 169 kts | 97° |
| 2026-05-05 09:58 | 51.48476 | 6.34050 | 1955 ft | 170 kts | 95° |
| 2026-05-05 09:58 | 51.48384 | 6.35944 | 1955 ft | 170 kts | 93° |
| 2026-05-05 09:58 | 51.48353 | 6.37829 | 1955 ft | 169 kts | 84° |
| 2026-05-05 09:58 | 51.48586 | 6.39675 | 1957 ft | 169 kts | 76° |
| 2026-05-05 09:59 | 51.48862 | 6.41516 | 1959 ft | 171 kts | 76° |
| 2026-05-05 09:59 | 51.49143 | 6.43361 | 1955 ft | 169 kts | 76° |
| 2026-05-05 09:59 | 51.49416 | 6.45199 | 1955 ft | 169 kts | 76° |
| 2026-05-05 09:59 | 51.49690 | 6.47012 | 1958 ft | 170 kts | 76° |
| 2026-05-05 10:00 | 51.49968 | 6.48858 | 1957 ft | 170 kts | 76° |
| 2026-05-05 10:00 | 51.50246 | 6.50702 | 1954 ft | 169 kts | 76° |
| 2026-05-05 10:00 | 51.50520 | 6.52536 | 1953 ft | 169 kts | 76° |
| 2026-05-05 10:00 | 51.50793 | 6.54372 | 1955 ft | 170 kts | 76° |
| 2026-05-05 10:01 | 51.51075 | 6.56223 | 1956 ft | 171 kts | 75° |
| 2026-05-05 10:01 | 51.51401 | 6.58052 | 1958 ft | 170 kts | 72° |
| 2026-05-05 10:01 | 51.51773 | 6.59862 | 1959 ft | 171 kts | 70° |
| 2026-05-05 10:01 | 51.52193 | 6.61649 | 1961 ft | 171 kts | 68° |
| 2026-05-05 10:02 | 51.52655 | 6.63404 | 1957 ft | 170 kts | 65° |
| 2026-05-05 10:02 | 51.53151 | 6.65123 | 1955 ft | 169 kts | 64° |
| 2026-05-05 10:02 | 51.53678 | 6.66808 | 1960 ft | 169 kts | 62° |
| 2026-05-05 10:02 | 51.54239 | 6.68473 | 1955 ft | 169 kts | 60° |
| 2026-05-05 10:03 | 51.54834 | 6.70098 | 1955 ft | 169 kts | 58° |
| 2026-05-05 10:03 | 51.55225 | 6.71855 | 1950 ft | 171 kts | 88° |
| 2026-05-05 10:03 | 51.54882 | 6.73629 | 1953 ft | 170 kts | 115° |
| 2026-05-05 10:03 | 51.54783 | 6.75477 | 1951 ft | 169 kts | 78° |
| 2026-05-05 10:04 | 51.55073 | 6.77327 | 1958 ft | 169 kts | 74° |
| 2026-05-05 10:04 | 51.55398 | 6.79113 | 1961 ft | 169 kts | 72° |
| 2026-05-05 10:04 | 51.55765 | 6.80917 | 1961 ft | 170 kts | 70° |
| 2026-05-05 10:04 | 51.56165 | 6.82698 | 1961 ft | 169 kts | 69° |
| 2026-05-05 10:05 | 51.56598 | 6.84451 | 1961 ft | 168 kts | 67° |
| 2026-05-05 10:05 | 51.57065 | 6.86179 | 1961 ft | 168 kts | 65° |
| 2026-05-05 10:05 | 51.57567 | 6.87877 | 1961 ft | 168 kts | 63° |
| 2026-05-05 10:05 | 51.58110 | 6.89553 | 1963 ft | 169 kts | 60° |
| 2026-05-05 10:06 | 51.58623 | 6.91259 | 1959 ft | 170 kts | 70° |
| 2026-05-05 10:06 | 51.58789 | 6.93133 | 1949 ft | 169 kts | 90° |
| 2026-05-05 10:06 | 51.58745 | 6.95027 | 1951 ft | 169 kts | 92° |
| 2026-05-05 10:06 | 51.58692 | 6.96922 | 1951 ft | 169 kts | 92° |
| 2026-05-05 10:07 | 51.58647 | 6.98791 | 1954 ft | 170 kts | 91° |
| 2026-05-05 10:07 | 51.58603 | 7.00690 | 1952 ft | 170 kts | 92° |
| 2026-05-05 10:07 | 51.58559 | 7.02578 | 1951 ft | 169 kts | 92° |
| 2026-05-05 10:07 | 51.58516 | 7.04468 | 1953 ft | 170 kts | 91° |
| 2026-05-05 10:08 | 51.58473 | 7.06367 | 1950 ft | 169 kts | 92° |
| 2026-05-05 10:08 | 51.58427 | 7.08257 | 1952 ft | 169 kts | 92° |
| 2026-05-05 10:08 | 51.58382 | 7.10147 | 1949 ft | 169 kts | 92° |
| 2026-05-05 10:08 | 51.58337 | 7.12035 | 1954 ft | 170 kts | 92° |
| 2026-05-05 10:09 | 51.58293 | 7.13935 | 1951 ft | 170 kts | 92° |
| 2026-05-05 10:09 | 51.58246 | 7.15830 | 1953 ft | 170 kts | 92° |
| 2026-05-05 10:09 | 51.58201 | 7.17724 | 1952 ft | 168 kts | 92° |
| 2026-05-05 10:09 | 51.58155 | 7.19598 | 1951 ft | 168 kts | 92° |
| 2026-05-05 10:10 | 51.58106 | 7.21466 | 1944 ft | 169 kts | 91° |
| 2026-05-05 10:10 | 51.58063 | 7.23326 | 1936 ft | 164 kts | 90° |
| 2026-05-05 10:10 | 51.58019 | 7.25152 | 1934 ft | 163 kts | 91° |
| 2026-05-05 10:10 | 51.57972 | 7.26973 | 1930 ft | 162 kts | 90° |
| 2026-05-05 10:11 | 51.57927 | 7.28760 | 1929 ft | 162 kts | 91° |
| 2026-05-05 10:11 | 51.57880 | 7.30573 | 1929 ft | 163 kts | 91° |
| 2026-05-05 10:11 | 51.57832 | 7.32393 | 1948 ft | 163 kts | 91° |
| 2026-05-05 10:11 | 51.57787 | 7.34170 | 2154 ft | 156 kts | 91° |
| 2026-05-05 10:12 | 51.57743 | 7.35896 | 2351 ft | 153 kts | 91° |
| 2026-05-05 10:12 | 51.57700 | 7.37601 | 2545 ft | 152 kts | 92° |
| 2026-05-05 10:12 | 51.57654 | 7.39304 | 2754 ft | 152 kts | 92° |
| 2026-05-05 10:12 | 51.57609 | 7.40999 | 2951 ft | 152 kts | 92° |
| 2026-05-05 10:13 | 51.57565 | 7.42685 | 3149 ft | 150 kts | 93° |
| 2026-05-05 10:13 | 51.57521 | 7.44345 | 3344 ft | 148 kts | 94° |
| 2026-05-05 10:13 | 51.57476 | 7.46021 | 3431 ft | 154 kts | 94° |
| 2026-05-05 10:13 | 51.57427 | 7.47784 | 3438 ft | 160 kts | 94° |
| 2026-05-05 10:14 | 51.57380 | 7.49594 | 3445 ft | 164 kts | 93° |
| 2026-05-05 10:14 | 51.57331 | 7.51443 | 3428 ft | 166 kts | 94° |
| 2026-05-05 10:14 | 51.57279 | 7.53306 | 3444 ft | 166 kts | 94° |
| 2026-05-05 10:14 | 51.57229 | 7.55170 | 3450 ft | 168 kts | 94° |
| 2026-05-05 10:15 | 51.57176 | 7.57047 | 3451 ft | 168 kts | 94° |
| 2026-05-05 10:15 | 51.57125 | 7.58920 | 3449 ft | 167 kts | 93° |
| 2026-05-05 10:15 | 51.57074 | 7.60780 | 3445 ft | 166 kts | 94° |
| 2026-05-05 10:15 | 51.57021 | 7.62623 | 3444 ft | 165 kts | 94° |
| 2026-05-05 10:16 | 51.56970 | 7.64438 | 3443 ft | 164 kts | 94° |
| 2026-05-05 10:16 | 51.56917 | 7.66269 | 3444 ft | 164 kts | 94° |
| 2026-05-05 10:16 | 51.56865 | 7.68106 | 3445 ft | 164 kts | 94° |
| 2026-05-05 10:16 | 51.56813 | 7.69939 | 3446 ft | 165 kts | 94° |
| 2026-05-05 10:17 | 51.56760 | 7.71791 | 3446 ft | 166 kts | 94° |
| 2026-05-05 10:17 | 51.56706 | 7.73644 | 3444 ft | 166 kts | 94° |
| 2026-05-05 10:17 | 51.56650 | 7.75535 | 3310 ft | 173 kts | 94° |
| 2026-05-05 10:17 | 51.56594 | 7.77490 | 3141 ft | 176 kts | 93° |
| 2026-05-05 10:18 | 51.56539 | 7.79458 | 2963 ft | 177 kts | 93° |
| 2026-05-05 10:18 | 51.56481 | 7.81428 | 2789 ft | 176 kts | 93° |
| 2026-05-05 10:18 | 51.56423 | 7.83397 | 2615 ft | 176 kts | 93° |
| 2026-05-05 10:18 | 51.56364 | 7.85365 | 2441 ft | 176 kts | 92° |
| 2026-05-05 10:19 | 51.56306 | 7.87324 | 2261 ft | 175 kts | 92° |
| 2026-05-05 10:19 | 51.56244 | 7.89242 | 2158 ft | 165 kts | 92° |
| 2026-05-05 10:19 | 51.56187 | 7.91078 | 2058 ft | 168 kts | 91° |
| 2026-05-05 10:19 | 51.56130 | 7.92976 | 1831 ft | 172 kts | 91° |
| 2026-05-05 10:20 | 51.56074 | 7.94903 | 1607 ft | 172 kts | 91° |
| 2026-05-05 10:20 | 51.56017 | 7.96825 | 1373 ft | 172 kts | 91° |
| 2026-05-05 10:20 | 51.55956 | 7.98740 | 1143 ft | 168 kts | 90° |
| 2026-05-05 10:20 | 51.55891 | 8.00466 | 894 ft | 146 kts | 90° |
| 2026-05-05 10:21 | 51.55829 | 8.02003 | 880 ft | 135 kts | 89° |
| 2026-05-05 10:21 | 51.55764 | 8.03493 | 1014 ft | 128 kts | 89° |
| 2026-05-05 10:21 | 51.55739 | 8.04889 | 1190 ft | 124 kts | 87° |
| 2026-05-05 10:21 | 51.55864 | 8.06285 | 1223 ft | 126 kts | 63° |
| 2026-05-05 10:22 | 51.56264 | 8.07572 | 1208 ft | 131 kts | 60° |
| 2026-05-05 10:22 | 51.56612 | 8.08931 | 1203 ft | 131 kts | 59° |
| 2026-05-05 10:22 | 51.57046 | 8.10167 | 1323 ft | 125 kts | 58° |
| 2026-05-05 10:22 | 51.57482 | 8.11351 | 1502 ft | 124 kts | 57° |
| 2026-05-05 10:23 | 51.57931 | 8.12557 | 1711 ft | 128 kts | 58° |
| 2026-05-05 10:23 | 51.58393 | 8.13786 | 1915 ft | 129 kts | 58° |
| 2026-05-05 10:23 | 51.58884 | 8.15079 | 1963 ft | 141 kts | 57° |
| 2026-05-05 10:23 | 51.59407 | 8.16454 | 1969 ft | 149 kts | 57° |
| 2026-05-05 10:24 | 51.59955 | 8.17894 | 1966 ft | 152 kts | 57° |
| 2026-05-05 10:24 | 51.60505 | 8.19336 | 1963 ft | 154 kts | 57° |
| 2026-05-05 10:24 | 51.60884 | 8.20326 | 1963 ft | 154 kts | 57° |